Time;durP1;ratioP1;P1;durP2;ratioP2;P2;SDS_P1;SDS_P2;PMS_P1;PMS_P2;Temp;Humidity;BMP_temperature;BMP_pressure;BME280_temperature;BME280_humidity;BME280_pressure;Samples;Min_cycle;Max_cycle;Signal;HPM_P1;HPM_P2
2023/07/05 00:01:00;;;;;;;6.28;2.58;;;15.10;99.90;;;;;;4964293;28;20053;-72
2023/07/05 00:03:26;;;;;;;5.53;2.50;;;15.10;99.90;;;;;;4981758;28;20189;-71
2023/07/05 00:05:52;;;;;;;5.05;2.55;;;15.10;99.90;;;;;;4966378;28;20480;-71
2023/07/05 00:08:18;;;;;;;5.75;2.85;;;15.10;99.90;;;;;;4978310;28;20166;-71
2023/07/05 00:10:43;;;;;;;5.93;2.80;;;15.10;99.90;;;;;;4972848;28;20042;-71
2023/07/05 00:13:09;;;;;;;5.75;2.63;;;15.10;99.90;;;;;;4965845;28;20457;-71
2023/07/05 00:15:35;;;;;;;4.38;2.25;;;15.00;99.90;;;;;;4965817;28;20548;-71
2023/07/05 00:18:00;;;;;;;3.75;2.35;;;15.00;99.90;;;;;;4966303;28;20442;-72
2023/07/05 00:20:26;;;;;;;3.72;2.30;;;15.00;99.90;;;;;;4973426;28;20121;-71
2023/07/05 00:22:52;;;;;;;5.70;2.97;;;15.00;99.90;;;;;;4965930;28;20541;-71
2023/07/05 00:25:18;;;;;;;10.43;5.03;;;15.00;99.90;;;;;;4965891;28;20050;-71
2023/07/05 00:27:44;;;;;;;6.97;3.17;;;15.00;99.90;;;;;;4981316;28;20046;-71
2023/07/05 00:30:10;;;;;;;7.75;4.07;;;15.00;99.90;;;;;;4963867;28;20051;-71
2023/07/05 00:32:36;;;;;;;9.05;4.05;;;14.90;99.90;;;;;;4963825;28;20053;-71
2023/07/05 00:35:02;;;;;;;9.02;4.78;;;14.90;99.90;;;;;;4965814;28;20034;-72
2023/07/05 00:37:27;;;;;;;4.75;3.08;;;14.90;99.90;;;;;;4966131;28;20050;-71
2023/07/05 00:39:53;;;;;;;10.85;3.20;;;14.90;99.90;;;;;;4964585;28;20039;-71
2023/07/05 00:42:18;;;;;;;5.22;2.75;;;14.90;99.90;;;;;;4964632;28;20042;-71
2023/07/05 00:45:08;;;;;;;4.85;2.78;;;14.90;99.90;;;;;;4947949;28;20547;-72
2023/07/05 00:47:35;;;;;;;6.57;2.85;;;14.80;99.90;;;;;;4966338;28;20078;-72
2023/07/05 00:50:14;;;;;;;4.10;2.63;;;14.80;99.90;;;;;;4964223;28;20352;-72
2023/07/05 00:52:41;;;;;;;9.57;3.20;;;14.80;99.90;;;;;;4948679;28;20492;-71
2023/07/05 00:55:07;;;;;;;5.22;2.90;;;14.80;99.90;;;;;;4965445;28;20046;-71
2023/07/05 00:57:37;;;;;;;3.72;2.40;;;14.80;99.90;;;;;;4964492;28;20054;-72
2023/07/05 01:00:23;;;;;;;5.72;3.00;;;14.80;99.90;;;;;;4964365;28;20053;-72
2023/07/05 01:02:58;;;;;;;6.15;2.78;;;14.80;99.90;;;;;;4965464;28;20058;-71
2023/07/05 01:05:25;;;;;;;7.60;3.40;;;14.70;99.90;;;;;;4965392;28;20047;-71
2023/07/05 01:07:51;;;;;;;8.02;2.80;;;14.70;99.90;;;;;;4965632;28;20138;-71
2023/07/05 01:10:19;;;;;;;8.95;3.15;;;14.70;99.90;;;;;;4965216;28;20130;-71
2023/07/05 01:12:57;;;;;;;6.40;3.42;;;14.70;99.90;;;;;;5038136;23;20130;-76
2023/07/05 01:15:34;;;;;;;4.35;3.05;;;14.70;99.90;;;;;;4948466;28;20058;-76
2023/07/05 01:18:05;;;;;;;7.20;3.42;;;14.70;99.90;;;;;;4944327;29;20043;-77
2023/07/05 01:20:54;;;;;;;5.25;3.83;;;14.70;99.90;;;;;;4946339;29;20043;-76
2023/07/05 01:23:50;;;;;;;7.90;3.47;;;14.70;99.90;;;;;;4945607;29;20047;-76
2023/07/05 01:26:37;;;;;;;8.98;4.20;;;14.70;99.90;;;;;;4934101;29;20055;-76
2023/07/05 01:29:39;;;;;;;11.20;3.83;;;14.70;99.90;;;;;;4915764;29;20095;-76
2023/07/05 01:32:29;;;;;;;7.90;2.50;;;14.60;99.90;;;;;;4944593;29;20043;-76
2023/07/05 01:35:18;;;;;;;5.70;3.58;;;14.60;99.90;;;;;;4934762;29;20047;-76
2023/07/05 01:37:45;;;;;;;7.82;3.45;;;14.60;99.90;;;;;;4944989;29;20082;-76
2023/07/05 01:40:18;;;;;;;8.55;3.28;;;14.60;99.90;;;;;;4944412;29;20057;-76
2023/07/05 01:42:45;;;;;;;8.27;4.28;;;14.60;99.90;;;;;;4928575;29;20575;-76
2023/07/05 01:45:11;;;;;;;6.43;3.30;;;14.60;99.90;;;;;;4947761;28;20047;-76
2023/07/05 01:47:48;;;;;;;6.43;3.25;;;14.60;99.90;;;;;;4948580;29;20051;-77
2023/07/05 01:50:26;;;;;;;6.35;3.20;;;14.60;99.90;;;;;;4948411;29;20043;-77
2023/07/05 01:53:07;;;;;;;10.50;3.97;;;14.60;99.90;;;;;;4949714;29;20051;-77
2023/07/05 01:56:09;;;;;;;8.90;3.88;;;14.60;99.90;;;;;;4948136;29;20160;-77
2023/07/05 01:58:40;;;;;;;5.13;2.97;;;14.60;99.90;;;;;;4944457;28;20110;-77
2023/07/05 02:01:08;;;;;;;10.23;3.90;;;14.50;99.90;;;;;;4953258;28;20043;-77
2023/07/05 02:03:36;;;;;;;7.30;3.22;;;14.50;99.90;;;;;;4949560;28;20434;-77
2023/07/05 02:06:03;;;;;;;10.65;4.13;;;14.40;99.90;;;;;;4950530;28;20050;-77
2023/07/05 02:08:29;;;;;;;9.75;3.97;;;14.50;99.90;;;;;;4944122;28;20134;-76
2023/07/05 02:10:55;;;;;;;8.13;3.42;;;14.50;99.90;;;;;;4948176;28;20506;-77
2023/07/05 02:13:20;;;;;;;6.50;3.72;;;14.50;99.90;;;;;;4937125;29;20067;-76
2023/07/05 02:15:50;;;;;;;4.90;3.50;;;14.50;99.90;;;;;;4941515;28;20074;-77
2023/07/05 02:18:16;;;;;;;6.28;3.75;;;14.50;99.90;;;;;;4947639;28;20051;-76
2023/07/05 02:20:42;;;;;;;6.65;3.83;;;14.50;99.90;;;;;;4948925;28;20051;-77
2023/07/05 02:23:07;;;;;;;11.02;3.97;;;14.40;99.90;;;;;;4963546;28;20035;-77
2023/07/05 02:25:34;;;;;;;5.65;3.35;;;14.40;99.90;;;;;;4966218;28;20397;-77
2023/07/05 02:27:59;;;;;;;7.32;4.68;;;14.40;99.90;;;;;;4931593;29;20758;-77
2023/07/05 02:30:26;;;;;;;5.72;4.07;;;14.40;99.90;;;;;;4963394;28;20090;-77
2023/07/05 02:32:52;;;;;;;7.80;4.05;;;14.40;99.90;;;;;;4960687;28;20051;-77
2023/07/05 02:35:18;;;;;;;7.07;3.47;;;14.50;99.90;;;;;;4948229;28;20039;-76
2023/07/05 02:37:43;;;;;;;7.35;3.75;;;14.40;99.90;;;;;;4947396;28;20043;-77
2023/07/05 02:40:09;;;;;;;6.53;4.03;;;14.40;99.90;;;;;;4947651;28;20047;-77
2023/07/05 02:42:35;;;;;;;15.30;4.45;;;14.40;99.90;;;;;;4948868;28;20122;-77
2023/07/05 02:45:00;;;;;;;10.95;4.28;;;14.50;99.90;;;;;;4947423;28;20062;-77
2023/07/05 02:47:27;;;;;;;6.20;3.45;;;14.50;99.90;;;;;;4951572;28;20117;-77
2023/07/05 02:49:52;;;;;;;9.65;4.28;;;14.40;99.90;;;;;;4931426;28;20043;-76
2023/07/05 02:52:18;;;;;;;8.50;3.95;;;14.50;99.90;;;;;;4948420;28;20039;-77
2023/07/05 02:54:44;;;;;;;8.38;4.47;;;14.40;99.90;;;;;;4946931;28;20067;-77
2023/07/05 02:57:09;;;;;;;8.25;4.82;;;14.40;99.90;;;;;;4946384;29;20109;-77
2023/07/05 02:59:35;;;;;;;13.00;5.50;;;14.40;99.90;;;;;;4947507;29;20046;-77
2023/07/05 03:02:01;;;;;;;10.95;4.05;;;14.40;99.90;;;;;;4948028;28;20117;-77
2023/07/05 03:04:30;;;;;;;8.70;4.78;;;14.30;99.90;;;;;;4948914;29;20043;-77
2023/07/05 03:06:55;;;;;;;7.97;4.20;;;14.30;99.90;;;;;;4931457;29;20047;-77
2023/07/05 03:09:21;;;;;;;8.73;4.00;;;14.30;99.90;;;;;;4948316;29;20521;-77
2023/07/05 03:11:47;;;;;;;7.80;4.93;;;14.30;99.90;;;;;;4947767;29;20539;-77
2023/07/05 03:14:13;;;;;;;10.23;4.75;;;14.20;99.90;;;;;;4947871;28;20055;-77
2023/07/05 03:16:38;;;;;;;10.45;4.70;;;14.20;99.90;;;;;;4946162;29;20055;-77
2023/07/05 03:19:04;;;;;;;10.57;5.00;;;14.20;99.90;;;;;;4946534;29;20552;-78
2023/07/05 03:21:30;;;;;;;10.70;4.22;;;14.20;99.90;;;;;;4948100;29;20058;-78
2023/07/05 03:23:55;;;;;;;8.60;4.50;;;14.20;99.90;;;;;;4948588;29;20398;-77
2023/07/05 03:26:21;;;;;;;9.73;4.40;;;14.20;99.90;;;;;;4946553;29;20105;-77
2023/07/05 03:28:46;;;;;;;10.35;4.65;;;14.30;99.90;;;;;;4946874;29;20508;-77
2023/07/05 03:31:15;;;;;;;9.95;4.72;;;14.30;99.90;;;;;;4945576;29;20047;-77
2023/07/05 03:33:41;;;;;;;10.25;5.07;;;14.30;99.90;;;;;;4931888;29;20086;-77
2023/07/05 03:36:11;;;;;;;10.98;5.78;;;14.30;99.90;;;;;;4946202;29;20047;-77
2023/07/05 03:38:37;;;;;;;12.00;5.43;;;14.30;99.90;;;;;;4947789;28;20105;-77
2023/07/05 03:41:05;;;;;;;9.60;5.32;;;14.30;99.90;;;;;;4947191;28;20043;-77
2023/07/05 03:43:35;;;;;;;13.68;4.70;;;14.30;99.90;;;;;;4947090;28;20047;-78
2023/07/05 03:46:02;;;;;;;6.63;4.35;;;14.40;99.90;;;;;;4927525;29;20160;-77
2023/07/05 03:48:34;;;;;;;11.82;5.25;;;14.40;99.90;;;;;;4948213;28;20473;-77
2023/07/05 03:50:59;;;;;;;11.77;5.32;;;14.40;99.90;;;;;;4946295;29;20053;-78
2023/07/05 03:53:25;;;;;;;8.05;5.05;;;14.40;99.90;;;;;;4947853;29;20126;-77
2023/07/05 03:55:51;;;;;;;10.10;5.55;;;14.40;99.90;;;;;;4947486;28;20097;-77
2023/07/05 03:58:17;;;;;;;16.13;5.38;;;14.40;99.90;;;;;;4946943;28;20062;-77
2023/07/05 04:00:42;;;;;;;9.15;5.53;;;14.40;99.90;;;;;;4944830;29;20051;-78
2023/07/05 04:03:08;;;;;;;12.95;5.85;;;14.50;99.90;;;;;;4946953;28;20043;-78
2023/07/05 04:05:34;;;;;;;10.20;5.25;;;14.50;99.90;;;;;;4947552;29;20552;-78
2023/07/05 04:08:00;;;;;;;9.73;5.47;;;14.50;99.90;;;;;;4946668;28;20524;-78
2023/07/05 04:10:25;;;;;;;8.75;5.53;;;14.50;99.90;;;;;;4945944;29;20047;-78
2023/07/05 04:12:51;;;;;;;13.18;5.55;;;14.50;99.90;;;;;;4946973;29;20077;-78
2023/07/05 04:15:17;;;;;;;14.38;6.22;;;14.50;99.90;;;;;;4945120;29;20399;-78
2023/07/05 04:17:43;;;;;;;9.57;5.38;;;14.60;99.90;;;;;;4947363;29;20050;-78
2023/07/05 04:20:08;;;;;;;10.80;4.78;;;14.60;99.90;;;;;;4945833;29;20071;-78
2023/07/05 04:22:40;;;;;;;8.20;4.55;;;14.60;99.90;;;;;;4946549;29;20043;-78
2023/07/05 04:25:09;;;;;;;11.10;5.50;;;14.60;99.90;;;;;;4945345;29;20050;-78
2023/07/05 04:27:35;;;;;;;10.15;4.78;;;14.60;99.90;;;;;;4946417;28;20046;-78
2023/07/05 04:30:03;;;;;;;10.57;4.40;;;14.60;99.90;;;;;;4945518;28;20095;-79
2023/07/05 04:32:29;;;;;;;7.47;4.05;;;14.70;99.90;;;;;;4947028;28;20051;-78
2023/07/05 04:34:55;;;;;;;8.43;4.50;;;14.70;99.90;;;;;;4944642;29;20050;-78
2023/07/05 04:37:21;;;;;;;8.50;4.03;;;14.70;99.90;;;;;;4945142;29;20051;-78
2023/07/05 04:39:46;;;;;;;8.05;3.40;;;14.70;99.90;;;;;;4945268;29;20043;-78
2023/07/05 04:42:12;;;;;;;6.13;2.92;;;14.70;99.90;;;;;;4946118;28;20481;-78
2023/07/05 04:44:38;;;;;;;5.80;2.95;;;14.70;99.90;;;;;;4945824;29;20482;-78
2023/07/05 04:47:03;;;;;;;4.60;2.30;;;14.70;99.90;;;;;;4944726;29;20082;-78
2023/07/05 04:49:29;;;;;;;3.47;2.53;;;14.70;99.90;;;;;;4946824;28;20046;-78
2023/07/05 04:51:55;;;;;;;3.88;2.55;;;14.60;99.90;;;;;;4945249;29;20098;-78
2023/07/05 04:54:20;;;;;;;4.43;2.70;;;14.60;99.90;;;;;;4946080;28;20043;-78
2023/07/05 04:56:46;;;;;;;3.58;2.45;;;14.60;99.90;;;;;;4946381;29;20126;-78
2023/07/05 04:59:11;;;;;;;6.15;2.50;;;14.60;99.90;;;;;;4943851;29;20067;-78
2023/07/05 05:01:38;;;;;;;3.72;2.38;;;14.60;99.90;;;;;;4947368;28;20053;-78
2023/07/05 05:04:04;;;;;;;4.80;2.88;;;14.60;99.90;;;;;;4946009;28;20039;-78
2023/07/05 05:06:30;;;;;;;4.88;2.65;;;14.60;99.90;;;;;;4946155;28;20079;-78
2023/07/05 05:08:55;;;;;;;6.68;2.92;;;14.60;99.90;;;;;;4946319;28;20501;-78
2023/07/05 05:11:22;;;;;;;5.07;2.38;;;14.60;99.90;;;;;;4944836;28;20472;-78
2023/07/05 05:13:49;;;;;;;4.57;2.47;;;14.60;99.90;;;;;;4944000;28;20548;-78
2023/07/05 05:16:15;;;;;;;4.32;1.95;;;14.60;99.90;;;;;;4944107;29;20532;-78
2023/07/05 05:18:43;;;;;;;2.90;1.80;;;14.60;99.90;;;;;;4946393;28;20086;-78
2023/07/05 05:21:09;;;;;;;2.85;1.77;;;14.50;99.90;;;;;;4950599;28;20062;-78
2023/07/05 05:23:35;;;;;;;3.47;1.90;;;14.60;99.90;;;;;;4952349;28;20047;-79
2023/07/05 05:26:01;;;;;;;6.10;1.80;;;14.50;99.90;;;;;;4952267;28;20127;-78
2023/07/05 05:28:27;;;;;;;5.88;2.03;;;14.50;99.90;;;;;;4951987;28;20537;-78
2023/07/05 05:31:04;;;;;;;3.70;2.30;;;14.50;99.90;;;;;;4951241;28;20039;-78
2023/07/05 05:33:30;;;;;;;2.97;1.73;;;14.50;99.90;;;;;;4951937;28;20071;-78
2023/07/05 05:35:55;;;;;;;3.90;2.35;;;14.50;99.90;;;;;;4947464;29;20044;-78
2023/07/05 05:38:21;;;;;;;5.50;2.60;;;14.50;99.90;;;;;;4934263;29;20125;-78
2023/07/05 05:40:50;;;;;;;3.95;2.53;;;14.40;99.90;;;;;;4950860;29;20058;-77
2023/07/05 05:43:16;;;;;;;3.40;1.90;;;14.50;99.90;;;;;;4950483;28;20490;-77
2023/07/05 05:45:42;;;;;;;4.00;2.10;;;14.40;99.90;;;;;;4950117;29;20050;-77
2023/07/05 05:48:08;;;;;;;4.47;2.47;;;14.40;99.90;;;;;;4952426;28;20416;-77
2023/07/05 05:50:35;;;;;;;2.78;2.00;;;14.40;99.90;;;;;;4951056;28;20047;-78
2023/07/05 05:53:00;;;;;;;4.85;2.53;;;14.40;99.90;;;;;;4951410;28;20059;-78
2023/07/05 05:55:26;;;;;;;4.40;3.20;;;14.40;99.90;;;;;;4951320;28;20047;-77
2023/07/05 05:57:52;;;;;;;8.00;3.28;;;14.40;99.90;;;;;;4950103;29;20035;-77
2023/07/05 06:00:18;;;;;;;4.22;2.78;;;14.30;99.90;;;;;;4947646;29;20043;-77
2023/07/05 06:02:43;;;;;;;5.72;2.92;;;14.30;99.90;;;;;;4945986;29;20054;-77
2023/07/05 06:05:10;;;;;;;3.40;2.35;;;14.20;99.90;;;;;;4950703;28;20125;-77
2023/07/05 06:07:35;;;;;;;4.70;3.42;;;14.30;99.90;;;;;;4949041;28;20147;-77
2023/07/05 06:10:01;;;;;;;3.50;2.33;;;14.30;99.90;;;;;;4955021;28;20570;-77
2023/07/05 06:12:26;;;;;;;4.32;2.22;;;14.30;99.90;;;;;;4959275;28;20063;-77
2023/07/05 06:14:52;;;;;;;5.07;1.70;;;14.30;99.90;;;;;;4958557;28;20434;-77
2023/07/05 06:17:18;;;;;;;3.83;2.15;;;14.30;99.90;;;;;;4950211;29;20509;-80
2023/07/05 06:19:44;;;;;;;4.65;2.20;;;14.20;99.90;;;;;;4934559;29;20043;-77
2023/07/05 06:22:10;;;;;;;5.38;2.30;;;14.20;99.90;;;;;;4948669;28;20175;-78
2023/07/05 06:24:36;;;;;;;2.80;1.90;;;14.20;99.90;;;;;;4950229;28;20071;-81
2023/07/05 06:27:02;;;;;;;3.53;1.95;;;14.30;99.90;;;;;;4948656;28;20051;-79
2023/07/05 06:29:27;;;;;;;4.82;2.22;;;14.30;99.90;;;;;;4948204;28;20126;-78
2023/07/05 06:31:53;;;;;;;2.72;1.88;;;14.40;99.90;;;;;;4947115;29;20054;-78
2023/07/05 06:34:19;;;;;;;5.93;1.90;;;14.40;99.90;;;;;;4942349;29;21206;-78
2023/07/05 06:36:44;;;;;;;2.92;1.50;;;14.40;99.90;;;;;;4946159;29;20118;-79
2023/07/05 06:39:10;;;;;;;4.50;1.98;;;14.50;99.90;;;;;;4947206;29;20561;-79
2023/07/05 06:41:35;;;;;;;2.78;1.77;;;14.50;99.90;;;;;;4946376;29;20137;-77
2023/07/05 06:44:01;;;;;;;2.80;1.48;;;14.50;99.90;;;;;;4946602;29;20039;-79
2023/07/05 06:46:27;;;;;;;2.22;1.27;;;14.50;99.90;;;;;;4930350;29;20051;-79
2023/07/05 06:48:52;;;;;;;3.65;1.83;;;14.50;99.90;;;;;;4947955;28;20075;-79
2023/07/05 06:51:18;;;;;;;3.58;1.45;;;14.50;99.90;;;;;;4945795;29;20039;-79
2023/07/05 06:53:44;;;;;;;1.88;0.93;;;14.60;99.90;;;;;;4942719;28;20051;-78
2023/07/05 06:56:10;;;;;;;2.00;1.27;;;14.60;99.90;;;;;;4928580;29;20032;-79
2023/07/05 06:58:36;;;;;;;2.95;1.63;;;14.70;99.90;;;;;;4933696;29;20047;-79
2023/07/05 07:01:02;;;;;;;2.72;1.80;;;14.70;99.90;;;;;;4945800;29;20402;-79
2023/07/05 07:03:29;;;;;;;2.42;1.20;;;14.70;99.90;;;;;;4947580;28;20040;-78
2023/07/05 07:05:56;;;;;;;1.63;1.33;;;14.70;99.90;;;;;;4947806;28;20134;-78
2023/07/05 07:08:28;;;;;;;4.35;1.25;;;14.70;99.90;;;;;;4944392;29;20344;-78
2023/07/05 07:10:54;;;;;;;6.28;1.73;;;14.60;99.90;;;;;;4928371;29;20499;-79
2023/07/05 07:13:19;;;;;;;2.10;1.23;;;14.60;99.90;;;;;;4945767;28;20102;-77
2023/07/05 07:15:45;;;;;;;2.28;1.30;;;14.60;99.90;;;;;;4945275;28;20067;-79
2023/07/05 07:18:11;;;;;;;2.50;1.40;;;14.50;99.90;;;;;;4951189;28;20094;-79
2023/07/05 07:20:36;;;;;;;2.15;1.17;;;14.40;99.90;;;;;;4951039;28;20046;-77
2023/07/05 07:23:02;;;;;;;5.97;1.70;;;14.40;99.90;;;;;;4935381;29;20039;-78
2023/07/05 07:25:28;;;;;;;1.90;1.30;;;14.30;99.90;;;;;;4947790;28;20436;-78
2023/07/05 07:27:54;;;;;;;1.50;1.40;;;14.20;99.90;;;;;;4946038;29;20138;-78
2023/07/05 07:30:20;;;;;;;1.80;0.77;;;14.10;99.90;;;;;;4946638;29;20105;-79
2023/07/05 07:32:46;;;;;;;4.43;0.93;;;13.90;99.90;;;;;;4946322;29;20142;-78
2023/07/05 07:35:12;;;;;;;1.77;0.68;;;13.80;99.90;;;;;;4947402;28;20130;-78
2023/07/05 07:37:38;;;;;;;1.90;0.40;;;13.60;99.90;;;;;;4945978;29;20122;-78
2023/07/05 07:40:06;;;;;;;2.17;1.17;;;13.40;99.90;;;;;;4947195;28;20094;-77
2023/07/05 07:42:32;;;;;;;0.30;0.30;;;13.30;99.90;;;;;;4957308;28;20193;-78
2023/07/05 07:44:57;;;;;;;0.82;0.38;;;13.10;99.90;;;;;;4955307;28;20146;-77
2023/07/05 07:47:23;;;;;;;0.50;0.40;;;13.00;99.90;;;;;;4943678;29;20042;-79
2023/07/05 07:49:49;;;;;;;2.10;0.70;;;12.90;99.90;;;;;;4931520;29;20421;-78
2023/07/05 07:52:15;;;;;;;0.52;0.35;;;12.80;99.90;;;;;;4941639;29;20043;-79
2023/07/05 07:54:45;;;;;;;3.30;0.70;;;12.70;99.90;;;;;;4946850;28;20109;-78
2023/07/05 07:57:11;;;;;;;0.40;0.40;;;12.70;99.90;;;;;;4946659;28;20056;-80
2023/07/05 07:59:41;;;;;;;1.02;0.38;;;12.60;99.90;;;;;;4944189;29;20047;-79
2023/07/05 08:02:11;;;;;;;0.38;0.38;;;12.60;99.90;;;;;;4942102;29;20071;-77
2023/07/05 08:04:45;;;;;;;0.40;0.40;;;12.50;99.90;;;;;;4945349;29;20134;-79
2023/07/05 08:07:11;;;;;;;2.80;0.40;;;12.60;99.90;;;;;;4944815;29;20143;-79
2023/07/05 08:09:36;;;;;;;0.60;0.38;;;12.50;99.90;;;;;;4945268;29;20105;-79
2023/07/05 08:12:02;;;;;;;3.20;0.30;;;12.40;99.90;;;;;;4944870;29;20126;-79
2023/07/05 08:14:28;;;;;;;0.60;0.55;;;12.40;99.90;;;;;;4944190;29;20039;-77
2023/07/05 08:16:54;;;;;;;0.77;0.40;;;12.40;99.90;;;;;;4940934;28;20542;-84
2023/07/05 08:19:20;;;;;;;0.60;0.60;;;12.40;99.90;;;;;;4945163;28;20417;-78
2023/07/05 08:21:47;;;;;;;0.50;0.50;;;12.40;99.90;;;;;;4949176;28;20043;-81
2023/07/05 08:24:14;;;;;;;2.15;0.50;;;12.40;99.90;;;;;;4932039;28;20038;-80
2023/07/05 08:26:41;;;;;;;2.55;0.63;;;12.40;99.90;;;;;;4935657;28;20046;-79
2023/07/05 08:29:08;;;;;;;1.17;0.65;;;12.40;99.90;;;;;;4944921;28;20043;-79
2023/07/05 08:31:35;;;;;;;1.73;0.80;;;12.40;99.90;;;;;;4946581;28;20402;-79
2023/07/05 08:34:01;;;;;;;1.25;0.68;;;12.40;99.90;;;;;;4945646;28;20046;-79
2023/07/05 08:36:38;;;;;;;4.03;0.60;;;12.40;99.90;;;;;;4946160;28;20145;-79
2023/07/05 08:39:06;;;;;;;3.55;0.82;;;12.50;99.90;;;;;;4946018;28;20097;-78
2023/07/05 08:41:44;;;;;;;5.13;0.90;;;12.50;99.90;;;;;;4928894;29;20046;-79
2023/07/05 08:44:43;;;;;;;2.90;0.90;;;12.60;99.90;;;;;;4944072;29;20444;-82
2023/07/05 08:47:11;;;;;;;8.35;0.90;;;12.70;99.90;;;;;;4929475;29;20061;-76
2023/07/05 08:50:10;;;;;;;2.47;1.02;;;12.80;99.90;;;;;;4944620;29;20122;-79
2023/07/05 08:52:42;;;;;;;1.13;1.02;;;13.00;99.90;;;;;;4932659;28;20055;-83
2023/07/05 08:55:16;;;;;;;3.00;0.75;;;13.10;99.90;;;;;;4928203;29;20039;-81
2023/07/05 08:57:51;;;;;;;11.30;1.10;;;13.30;99.90;;;;;;4945124;29;20040;-81
2023/07/05 09:00:38;;;;;;;9.23;1.15;;;13.40;99.90;;;;;;4943489;29;20057;-83
2023/07/05 09:03:10;;;;;;;6.90;2.28;;;13.50;99.90;;;;;;4942835;29;20308;-81
2023/07/05 09:05:41;;;;;;;4.00;0.77;;;13.70;99.90;;;;;;4940590;29;20047;-83
2023/07/05 09:08:49;;;;;;;3.85;0.90;;;13.70;99.90;;;;;;4943924;29;20051;-82
2023/07/05 09:11:25;;;;;;;3.08;0.65;;;13.80;99.90;;;;;;4911127;29;20051;-81
2023/07/05 09:14:03;;;;;;;5.43;0.90;;;13.80;99.90;;;;;;4943270;29;20047;-82
2023/07/05 09:16:55;;;;;;;5.25;1.35;;;13.90;99.90;;;;;;4940610;29;20479;-82
2023/07/05 09:19:59;;;;;;;5.32;0.93;;;14.10;99.90;;;;;;4940970;29;20055;-83
2023/07/05 09:22:33;;;;;;;2.67;1.15;;;14.10;99.90;;;;;;4898567;29;20625;-82
2023/07/05 09:24:59;;;;;;;3.13;1.33;;;14.00;99.90;;;;;;4937477;29;20079;-79
2023/07/05 09:27:32;;;;;;;1.95;0.40;;;13.90;99.90;;;;;;4946198;28;20201;-83
2023/07/05 09:30:17;;;;;;;1.10;0.73;;;13.80;99.90;;;;;;4944520;28;20102;-80
2023/07/05 09:32:49;;;;;;;0.75;0.52;;;13.70;99.90;;;;;;4943666;29;20152;-82
2023/07/05 09:35:20;;;;;;;1.17;0.30;;;13.60;99.90;;;;;;4943074;29;20130;-80
2023/07/05 09:37:56;;;;;;;1.10;0.60;;;13.60;99.90;;;;;;4944759;28;20039;-84
2023/07/05 09:40:27;;;;;;;0.73;0.60;;;13.60;99.90;;;;;;4943811;29;20055;-82
2023/07/05 09:43:07;;;;;;;1.45;0.47;;;13.60;99.90;;;;;;4944987;28;20050;-79
2023/07/05 09:45:33;;;;;;;1.55;0.20;;;13.70;99.90;;;;;;4923656;29;20056;-80
2023/07/05 09:48:06;;;;;;;0.75;0.40;;;13.70;99.90;;;;;;4939049;29;20069;-82
2023/07/05 09:50:32;;;;;;;0.55;0.30;;;13.80;99.90;;;;;;4944666;29;20101;-77
2023/07/05 09:53:15;;;;;;;0.32;0.32;;;13.80;99.90;;;;;;4946375;28;20078;-80
2023/07/05 09:56:17;;;;;;;2.65;0.40;;;13.80;99.90;;;;;;4948101;28;20232;-85
2023/07/05 09:58:44;;;;;;;1.65;0.52;;;13.80;99.90;;;;;;4839518;29;20492;-82
2023/07/05 10:01:17;;;;;;;1.38;1.13;;;13.70;99.90;;;;;;4952678;28;20117;-79
2023/07/05 10:03:54;;;;;;;0.28;0.28;;;13.80;99.90;;;;;;4961994;28;20442;-81
2023/07/05 10:06:24;;;;;;;0.38;0.30;;;13.80;99.90;;;;;;4943059;28;20107;-79
2023/07/05 10:08:52;;;;;;;0.17;0.17;;;13.80;99.90;;;;;;4952066;28;20043;-82
2023/07/05 10:11:20;;;;;;;1.38;0.32;;;13.90;99.90;;;;;;4948758;28;20088;-82
2023/07/05 10:13:46;;;;;;;2.72;0.28;;;14.00;99.90;;;;;;4939834;28;20090;-77
2023/07/05 10:16:12;;;;;;;0.45;0.35;;;14.00;99.90;;;;;;4957578;28;20149;-81
2023/07/05 10:18:41;;;;;;;0.73;0.50;;;14.00;99.90;;;;;;4964272;28;20473;-82
2023/07/05 10:21:18;;;;;;;1.38;0.20;;;14.00;99.90;;;;;;4966138;28;20050;-81
2023/07/05 10:23:44;;;;;;;1.23;0.40;;;14.20;99.90;;;;;;4961620;28;20097;-83
2023/07/05 10:26:11;;;;;;;0.80;0.38;;;14.20;99.90;;;;;;4947651;28;20042;-79
2023/07/05 10:28:40;;;;;;;0.90;0.30;;;14.20;99.90;;;;;;4965507;28;20078;-81
2023/07/05 10:31:07;;;;;;;0.25;0.22;;;14.20;99.90;;;;;;4953070;28;20047;-82
2023/07/05 10:33:38;;;;;;;2.10;0.32;;;14.30;99.90;;;;;;4946899;28;20497;-82
2023/07/05 10:36:09;;;;;;;2.83;0.50;;;14.30;99.90;;;;;;4956392;28;20054;-80
2023/07/05 10:38:41;;;;;;;0.43;0.40;;;14.30;99.90;;;;;;4955563;28;20043;-81
2023/07/05 10:41:25;;;;;;;0.57;0.40;;;14.40;99.90;;;;;;4950834;28;20068;-82
2023/07/05 10:44:04;;;;;;;0.43;0.43;;;14.50;99.90;;;;;;4948671;28;20126;-82
2023/07/05 10:46:31;;;;;;;0.93;0.47;;;14.60;99.90;;;;;;4948881;28;20047;-78
2023/07/05 10:48:58;;;;;;;2.40;0.50;;;14.60;99.90;;;;;;4936329;29;20110;-82
2023/07/05 10:51:26;;;;;;;0.40;0.40;;;14.70;99.90;;;;;;4947708;28;20130;-82
2023/07/05 10:54:25;;;;;;;1.58;0.50;;;14.70;99.90;;;;;;4946710;28;20493;-81
2023/07/05 10:56:52;;;;;;;0.68;0.38;;;14.80;99.90;;;;;;4941777;29;20202;-81
2023/07/05 10:59:37;;;;;;;3.10;0.52;;;14.90;99.90;;;;;;4929860;29;20403;-83
2023/07/05 11:02:12;;;;;;;1.25;1.13;;;15.00;99.90;;;;;;4926567;29;20086;-81
2023/07/05 11:04:42;;;;;;;2.45;0.45;;;14.90;99.90;;;;;;4946144;29;20529;-83
2023/07/05 11:07:10;;;;;;;4.25;1.73;;;14.90;99.90;;;;;;4946201;29;20138;-82
2023/07/05 11:09:40;;;;;;;0.65;0.60;;;15.00;99.90;;;;;;4963917;28;20118;-81
2023/07/05 11:12:30;;;;;;;6.35;0.70;;;15.00;99.90;;;;;;4948925;28;20438;-80
2023/07/05 11:14:58;;;;;;;2.60;0.30;;;15.10;99.90;;;;;;4944128;28;20080;-77
2023/07/05 11:17:32;;;;;;;3.75;0.70;;;15.20;99.90;;;;;;4957198;28;20405;-80
2023/07/05 11:19:59;;;;;;;2.97;0.90;;;15.30;99.90;;;;;;4952977;28;20039;-79
2023/07/05 11:22:45;;;;;;;2.35;1.00;;;15.40;99.90;;;;;;4929783;28;20063;-79
2023/07/05 11:25:18;;;;;;;2.60;0.40;;;15.40;99.90;;;;;;4949427;28;20066;-78
2023/07/05 11:27:54;;;;;;;2.50;0.70;;;15.50;99.90;;;;;;4957835;28;20417;-80
2023/07/05 11:30:40;;;;;;;5.80;0.90;;;15.50;99.90;;;;;;4944832;28;20069;-79
2023/07/05 11:33:05;;;;;;;2.08;1.02;;;15.40;99.90;;;;;;4939093;28;20050;-80
2023/07/05 11:35:41;;;;;;;7.78;1.67;;;15.20;99.90;;;;;;4945864;29;20461;-78
2023/07/05 11:38:07;;;;;;;4.47;1.58;;;15.10;99.90;;;;;;4946111;29;20051;-80
2023/07/05 11:40:55;;;;;;;5.80;1.02;;;14.90;99.90;;;;;;4947174;28;20049;-80
2023/07/05 11:43:36;;;;;;;7.30;1.35;;;14.70;99.90;;;;;;4942297;28;20434;-78
2023/07/05 11:46:26;;;;;;;8.23;1.60;;;14.60;99.90;;;;;;4945304;29;20374;-78
2023/07/05 11:48:51;;;;;;;6.32;1.80;;;14.50;99.90;;;;;;4942152;29;20058;-79
2023/07/05 11:51:29;;;;;;;2.65;0.75;;;14.40;99.90;;;;;;4946224;29;20043;-83
2023/07/05 11:53:57;;;;;;;11.95;2.03;;;14.30;99.90;;;;;;4945030;29;20097;-80
2023/07/05 11:56:24;;;;;;;6.63;0.85;;;14.20;99.90;;;;;;4944614;29;20389;-80
2023/07/05 11:58:51;;;;;;;4.03;1.27;;;14.10;99.90;;;;;;4945564;28;20043;-80
2023/07/05 12:01:26;;;;;;;4.97;1.70;;;14.10;99.90;;;;;;4946177;28;20438;-79
2023/07/05 12:03:58;;;;;;;1.98;1.02;;;14.00;99.90;;;;;;4946470;28;20039;-78
2023/07/05 12:06:32;;;;;;;2.95;1.08;;;13.90;99.90;;;;;;4945089;29;20105;-82
2023/07/05 12:09:03;;;;;;;7.30;1.00;;;13.90;99.90;;;;;;4946725;28;20435;-82
2023/07/05 12:11:33;;;;;;;2.47;1.42;;;13.90;99.90;;;;;;4946878;28;20043;-80
2023/07/05 12:14:06;;;;;;;2.38;0.73;;;13.80;99.90;;;;;;4941499;28;20792;-80
2023/07/05 12:16:32;;;;;;;4.68;1.08;;;13.80;99.90;;;;;;4943584;29;20070;-80
2023/07/05 12:18:57;;;;;;;3.50;1.40;;;13.80;99.90;;;;;;4947015;28;20039;-80
2023/07/05 12:21:24;;;;;;;2.33;0.82;;;13.80;99.90;;;;;;4945694;28;20105;-79
2023/07/05 12:23:55;;;;;;;2.97;1.05;;;13.80;99.90;;;;;;4944976;29;20051;-83
2023/07/05 12:26:34;;;;;;;2.53;0.80;;;13.80;99.90;;;;;;4942290;28;20332;-78
2023/07/05 12:29:03;;;;;;;8.18;1.45;;;13.70;99.90;;;;;;4943597;28;20852;-79
2023/07/05 12:31:29;;;;;;;7.90;1.48;;;13.70;99.90;;;;;;4945150;28;20075;-84
2023/07/05 12:34:00;;;;;;;4.25;0.93;;;13.60;99.90;;;;;;4955542;28;20046;-81
2023/07/05 12:36:26;;;;;;;2.97;1.50;;;13.60;99.90;;;;;;4935772;29;20038;-83
2023/07/05 12:39:07;;;;;;;5.40;1.35;;;13.50;99.90;;;;;;4946650;29;20045;-80
2023/07/05 12:41:33;;;;;;;4.72;1.50;;;13.50;99.90;;;;;;4942604;29;20051;-84
2023/07/05 12:44:04;;;;;;;7.65;1.50;;;13.50;99.90;;;;;;4945148;28;20070;-81
2023/07/05 12:46:32;;;;;;;4.82;1.00;;;13.50;99.90;;;;;;4945320;28;20097;-87
2023/07/05 12:49:20;;;;;;;10.23;2.55;;;13.50;99.90;;;;;;4946044;28;20433;-84
2023/07/05 12:51:49;;;;;;;3.88;1.27;;;13.40;99.90;;;;;;4943665;29;20130;-85
2023/07/05 12:54:15;;;;;;;8.05;1.50;;;13.40;99.90;;;;;;4945273;28;20517;-89
2023/07/05 12:56:45;;;;;;;8.05;1.60;;;13.30;99.90;;;;;;4944689;29;20069;-85
2023/07/05 12:59:31;;;;;;;9.70;1.98;;;13.30;99.90;;;;;;4944499;28;20047;-84